Asturcon — V7CH7 — position and weather

sailwx.info

Track history (hours):
 
Tides and Currents Weather Stations Pressure Air Temp Water Temp Dewpoint Dewpoint Depression Visibility Wind Speed Wind Dir Waves Ship Positions

Asturcon

Last reported at 2017-Sep-21 14:13 UTC. Time now 2017-Sep-21 16:16 UTC.
Position N 34°48' E 031°19'.

Length 180 m; draft 7.1 m.

Type: Cargo ship. MMSI: 538005262.

Date/timePositionNaut miles runAvg speedWind from/ knotsBaromVisibWave heightAir tempDewpointWater temp
2017-Sep-21 14:13N 34°48' E 031°19'312.5
2017-Sep-21 14:00N 34°47' E 031°22'612.6
2017-Sep-21 13:30N 34°45' E 031°30'612.7
2017-Sep-21 13:00N 34°43' E 031°37'612.6
2017-Sep-21 12:30N 34°42' E 031°45'912.8
2017-Sep-21 11:48N 34°39' E 031°55'412.9
2017-Sep-21 11:30N 34°38' E 031°59'613.1
2017-Sep-21 11:00N 34°36' E 032°07'713.1
2017-Sep-21 10:30N 34°34' E 032°14'1513.0
2017-Sep-21 09:20N 34°29' E 032°32'513.1
2017-Sep-21 08:59N 34°28' E 032°37'813.0
2017-Sep-21 08:23N 34°25' E 032°46'  
2017-Sep-17 17:31N 34°28' E 032°07'212.4
2017-Sep-17 17:21N 34°28' E 032°05'2712.4
2017-Sep-17 15:09N 34°34' E 031°32'212.7
2017-Sep-17 15:01N 34°35' E 031°30'2612.7
2017-Sep-17 12:58N 34°39' E 030°59'613.0
2017-Sep-17 12:30N 34°41' E 030°52'713.1
2017-Sep-17 12:00N 34°42' E 030°44'30812.8
2017-Sep-16 12:00N 35°41' E 024°34'713.6
2017-Sep-16 11:30N 35°42' E 024°26'713.5
2017-Sep-16 11:00N 35°43' E 024°18'713.1
2017-Sep-16 10:30N 35°44' E 024°10'612.8
2017-Sep-16 10:00N 35°45' E 024°02'3812.8
2017-Sep-16 07:02N 35°48' E 023°15'113.0
2017-Sep-16 06:59N 35°48' E 023°15'813.5
2017-Sep-16 06:22N 35°51' E 023°05'2413.3
2017-Sep-16 04:36N 35°59' E 022°37'113.2
2017-Sep-16 04:30N 35°59' E 022°36'33513.2
2017-Sep-15 03:07N 37°46' E 015°59'313.3
2017-Sep-15 02:56N 37°47' E 015°56'513.1
2017-Sep-15 02:30N 37°48' E 015°49'713.2
2017-Sep-15 02:00N 37°50' E 015°41'612.7
2017-Sep-15 01:30N 37°55' E 015°36'713.8
2017-Sep-15 01:01N 38°01' E 015°33'713.8
2017-Sep-15 00:30N 38°08' E 015°35'714.0
2017-Sep-15 00:00N 38°14' E 015°37'510.7
2017-Sep-14 23:30N 38°19' E 015°39'612.2
2017-Sep-14 23:00N 38°24' E 015°34'612.4
2017-Sep-14 22:30N 38°28' E 015°29'713.2
2017-Sep-14 22:00N 38°33' E 015°23'713.6
2017-Sep-14 21:30N 38°38' E 015°17'713.1
2017-Sep-14 21:00N 38°43' E 015°12'612.9
2017-Sep-14 20:30N 38°47' E 015°05'713.1
2017-Sep-14 19:58N 38°52' E 014°58'713.0
2017-Sep-14 19:27N 38°56' E 014°52'23612.8
2017-Sep-14 01:00N 41°33' E 011°01'812.8
2017-Sep-14 00:25N 41°38' E 010°53'11712.0
2017-Sep-13 14:43N 43°14' E 009°24'312.4
2017-Sep-13 14:30N 43°16' E 009°22'612.3
2017-Sep-13 14:00N 43°20' E 009°16'612.3
2017-Sep-13 13:30N 43°25' E 009°10'612.1
2017-Sep-13 13:00N 43°29' E 009°04'611.6
2017-Sep-13 12:30N 43°34' E 009°00'611.6
2017-Sep-13 12:00N 43°39' E 008°57'611.7
2017-Sep-13 11:30N 43°45' E 008°54'711.8
2017-Sep-13 10:56N 43°51' E 008°50'512.0
2017-Sep-13 10:30N 43°55' E 008°46'612.1
2017-Sep-13 10:00N 44°01' E 008°43'612.2
2017-Sep-13 09:30N 44°06' E 008°39'612.4
2017-Sep-13 09:00N 44°12' E 008°35'611.2
2017-Sep-13 08:30N 44°17' E 008°32'2 4.6
2017-Sep-13 07:59N 44°19' E 008°30'0 0.0
2017-Sep-13 07:29N 44°19' E 008°30'0 0.0
2017-Sep-13 06:56N 44°19' E 008°30'0 0.0
2017-Sep-13 06:29N 44°19' E 008°30'0 0.0
2017-Sep-13 05:59N 44°19' E 008°30'0 0.0
2017-Sep-13 05:29N 44°19' E 008°30'0 0.0
2017-Sep-13 04:59N 44°19' E 008°30'0 0.0
2017-Sep-13 04:29N 44°19' E 008°30'0 0.0
2017-Sep-13 03:59N 44°19' E 008°30'0 0.0
2017-Sep-13 03:29N 44°19' E 008°30'0 0.0
2017-Sep-13 02:59N 44°19' E 008°30'0 0.0
2017-Sep-13 02:29N 44°19' E 008°30'0 0.0
2017-Sep-13 01:56N 44°19' E 008°30'0 0.0
2017-Sep-13 01:29N 44°19' E 008°30'0 0.0
2017-Sep-13 00:59N 44°19' E 008°30'0 0.0
2017-Sep-13 00:29N 44°19' E 008°30'0 0.0
2017-Sep-12 23:59N 44°19' E 008°30'0 0.0
2017-Sep-12 23:29N 44°19' E 008°30'0 0.0
2017-Sep-12 22:56N 44°19' E 008°30'0 0.0
2017-Sep-12 22:29N 44°19' E 008°30'0 0.0
2017-Sep-12 21:59N 44°19' E 008°30'0 0.0
2017-Sep-12 21:29N 44°19' E 008°30'0 0.0
2017-Sep-12 20:56N 44°19' E 008°30'0 0.0
2017-Sep-12 20:29N 44°19' E 008°30'0 0.0
2017-Sep-12 19:56N 44°19' E 008°30'0 0.0
2017-Sep-12 19:29N 44°19' E 008°30'0 0.0
2017-Sep-12 18:59N 44°19' E 008°30'0 0.0
2017-Sep-12 18:29N 44°19' E 008°30'0 0.0
2017-Sep-12 17:59N 44°19' E 008°30'0 0.0
2017-Sep-12 17:26N 44°19' E 008°30'0 0.0
2017-Sep-12 16:59N 44°19' E 008°30'0 0.0
2017-Sep-12 16:29N 44°19' E 008°30'0 0.0
2017-Sep-12 15:59N 44°19' E 008°30'0 0.0
2017-Sep-12 15:29N 44°19' E 008°30'0 0.0
2017-Sep-12 14:59N 44°19' E 008°30'0 0.0
2017-Sep-12 14:29N 44°19' E 008°30'0 0.0
2017-Sep-12 13:59N 44°19' E 008°30'0 0.0
2017-Sep-12 13:29N 44°19' E 008°30'0 0.0
2017-Sep-12 12:59N 44°19' E 008°30'0 0.0
2017-Sep-12 12:29N 44°19' E 008°30'0 0.0
2017-Sep-12 11:59N 44°19' E 008°30'0 0.0
2017-Sep-12 11:29N 44°19' E 008°30'0 0.0
2017-Sep-12 10:59N 44°19' E 008°30'0 0.0
2017-Sep-12 10:29N 44°19' E 008°30'0 0.0
2017-Sep-12 09:59N 44°19' E 008°30'0 0.0
2017-Sep-12 09:29N 44°19' E 008°30'0 0.4
2017-Sep-12 09:00N 44°19' E 008°30'2 3.7
2017-Sep-12 08:30N 44°18' E 008°32'5 9.1
2017-Sep-12 08:00N 44°13' E 008°34'510.4
2017-Sep-12 07:30N 44°08' E 008°34'611.9
2017-Sep-12 07:00N 44°02' E 008°34'510.7
2017-Sep-12 06:30N 43°57' E 008°30'611.6
2017-Sep-12 06:00N 43°54' E 008°24'711.4
2017-Sep-12 05:26N 43°49' E 008°18'3711.5
2017-Sep-12 02:12N 43°23' E 007°41'211.1
2017-Sep-12 01:59N 43°22' E 007°38'511.1
2017-Sep-12 01:30N 43°18' E 007°33'611.0
2017-Sep-12 00:58N 43°14' E 007°27'510.6
2017-Sep-12 00:30N 43°11' E 007°22'510.2
2017-Sep-11 23:58N 43°07' E 007°17'510.0
2017-Sep-11 23:30N 43°04' E 007°12'510.0
2017-Sep-11 23:00N 42°60' E 007°08'  
Track history (hours):
 
Tides and Currents Weather Stations Pressure Air Temp Water Temp Dewpoint Dewpoint Depression Visibility Wind Speed Wind Dir Waves Ship Positions

Asturcon

Last reported at 2017-Sep-21 14:13 UTC. Time now 2017-Sep-21 16:16 UTC.
Position N 34°48' E 031°19'.

Length 180 m; draft 7.1 m.

Type: Cargo ship. MMSI: 538005262.

Date/timePositionNaut miles runAvg speedWind from/ knotsBaromVisibWave heightAir tempDewpointWater temp
2017-Sep-21 14:13N 34°48' E 031°19'312.5
2017-Sep-21 14:00N 34°47' E 031°22'612.6
2017-Sep-21 13:30N 34°45' E 031°30'612.7
2017-Sep-21 13:00N 34°43' E 031°37'612.6
2017-Sep-21 12:30N 34°42' E 031°45'912.8
2017-Sep-21 11:48N 34°39' E 031°55'412.9
2017-Sep-21 11:30N 34°38' E 031°59'613.1
2017-Sep-21 11:00N 34°36' E 032°07'713.1
2017-Sep-21 10:30N 34°34' E 032°14'1513.0
2017-Sep-21 09:20N 34°29' E 032°32'513.1
2017-Sep-21 08:59N 34°28' E 032°37'813.0
2017-Sep-21 08:23N 34°25' E 032°46'  
2017-Sep-17 17:31N 34°28' E 032°07'212.4
2017-Sep-17 17:21N 34°28' E 032°05'2712.4
2017-Sep-17 15:09N 34°34' E 031°32'212.7
2017-Sep-17 15:01N 34°35' E 031°30'2612.7
2017-Sep-17 12:58N 34°39' E 030°59'613.0
2017-Sep-17 12:30N 34°41' E 030°52'713.1
2017-Sep-17 12:00N 34°42' E 030°44'30812.8
2017-Sep-16 12:00N 35°41' E 024°34'713.6
2017-Sep-16 11:30N 35°42' E 024°26'713.5
2017-Sep-16 11:00N 35°43' E 024°18'713.1
2017-Sep-16 10:30N 35°44' E 024°10'612.8
2017-Sep-16 10:00N 35°45' E 024°02'3812.8
2017-Sep-16 07:02N 35°48' E 023°15'113.0
2017-Sep-16 06:59N 35°48' E 023°15'813.5
2017-Sep-16 06:22N 35°51' E 023°05'2413.3
2017-Sep-16 04:36N 35°59' E 022°37'113.2
2017-Sep-16 04:30N 35°59' E 022°36'33513.2
2017-Sep-15 03:07N 37°46' E 015°59'313.3
2017-Sep-15 02:56N 37°47' E 015°56'513.1
2017-Sep-15 02:30N 37°48' E 015°49'713.2
2017-Sep-15 02:00N 37°50' E 015°41'612.7
2017-Sep-15 01:30N 37°55' E 015°36'713.8
2017-Sep-15 01:01N 38°01' E 015°33'713.8
2017-Sep-15 00:30N 38°08' E 015°35'714.0
2017-Sep-15 00:00N 38°14' E 015°37'510.7
2017-Sep-14 23:30N 38°19' E 015°39'612.2
2017-Sep-14 23:00N 38°24' E 015°34'612.4
2017-Sep-14 22:30N 38°28' E 015°29'713.2
2017-Sep-14 22:00N 38°33' E 015°23'713.6
2017-Sep-14 21:30N 38°38' E 015°17'713.1
2017-Sep-14 21:00N 38°43' E 015°12'612.9
2017-Sep-14 20:30N 38°47' E 015°05'713.1
2017-Sep-14 19:58N 38°52' E 014°58'713.0
2017-Sep-14 19:27N 38°56' E 014°52'23612.8
2017-Sep-14 01:00N 41°33' E 011°01'812.8
2017-Sep-14 00:25N 41°38' E 010°53'11712.0
2017-Sep-13 14:43N 43°14' E 009°24'312.4
2017-Sep-13 14:30N 43°16' E 009°22'612.3
2017-Sep-13 14:00N 43°20' E 009°16'612.3
2017-Sep-13 13:30N 43°25' E 009°10'612.1
2017-Sep-13 13:00N 43°29' E 009°04'611.6
2017-Sep-13 12:30N 43°34' E 009°00'611.6
2017-Sep-13 12:00N 43°39' E 008°57'611.7
2017-Sep-13 11:30N 43°45' E 008°54'711.8
2017-Sep-13 10:56N 43°51' E 008°50'512.0
2017-Sep-13 10:30N 43°55' E 008°46'612.1
2017-Sep-13 10:00N 44°01' E 008°43'612.2
2017-Sep-13 09:30N 44°06' E 008°39'612.4
2017-Sep-13 09:00N 44°12' E 008°35'611.2
2017-Sep-13 08:30N 44°17' E 008°32'2 4.6
2017-Sep-13 07:59N 44°19' E 008°30'0 0.0
2017-Sep-13 07:29N 44°19' E 008°30'0 0.0
2017-Sep-13 06:56N 44°19' E 008°30'0 0.0
2017-Sep-13 06:29N 44°19' E 008°30'0 0.0
2017-Sep-13 05:59N 44°19' E 008°30'0 0.0
2017-Sep-13 05:29N 44°19' E 008°30'0 0.0
2017-Sep-13 04:59N 44°19' E 008°30'0 0.0
2017-Sep-13 04:29N 44°19' E 008°30'0 0.0
2017-Sep-13 03:59N 44°19' E 008°30'0 0.0
2017-Sep-13 03:29N 44°19' E 008°30'0 0.0
2017-Sep-13 02:59N 44°19' E 008°30'0 0.0
2017-Sep-13 02:29N 44°19' E 008°30'0 0.0
2017-Sep-13 01:56N 44°19' E 008°30'0 0.0
2017-Sep-13 01:29N 44°19' E 008°30'0 0.0
2017-Sep-13 00:59N 44°19' E 008°30'0 0.0
2017-Sep-13 00:29N 44°19' E 008°30'0 0.0
2017-Sep-12 23:59N 44°19' E 008°30'0 0.0
2017-Sep-12 23:29N 44°19' E 008°30'0 0.0
2017-Sep-12 22:56N 44°19' E 008°30'0 0.0
2017-Sep-12 22:29N 44°19' E 008°30'0 0.0
2017-Sep-12 21:59N 44°19' E 008°30'0 0.0
2017-Sep-12 21:29N 44°19' E 008°30'0 0.0
2017-Sep-12 20:56N 44°19' E 008°30'0 0.0
2017-Sep-12 20:29N 44°19' E 008°30'0 0.0
2017-Sep-12 19:56N 44°19' E 008°30'0 0.0
2017-Sep-12 19:29N 44°19' E 008°30'0 0.0
2017-Sep-12 18:59N 44°19' E 008°30'0 0.0
2017-Sep-12 18:29N 44°19' E 008°30'0 0.0
2017-Sep-12 17:59N 44°19' E 008°30'0 0.0
2017-Sep-12 17:26N 44°19' E 008°30'0 0.0
2017-Sep-12 16:59N 44°19' E 008°30'0 0.0
2017-Sep-12 16:29N 44°19' E 008°30'0 0.0
2017-Sep-12 15:59N 44°19' E 008°30'0 0.0
2017-Sep-12 15:29N 44°19' E 008°30'0 0.0
2017-Sep-12 14:59N 44°19' E 008°30'0 0.0
2017-Sep-12 14:29N 44°19' E 008°30'0 0.0
2017-Sep-12 13:59N 44°19' E 008°30'0 0.0
2017-Sep-12 13:29N 44°19' E 008°30'0 0.0
2017-Sep-12 12:59N 44°19' E 008°30'0 0.0
2017-Sep-12 12:29N 44°19' E 008°30'0 0.0
2017-Sep-12 11:59N 44°19' E 008°30'0 0.0
2017-Sep-12 11:29N 44°19' E 008°30'0 0.0
2017-Sep-12 10:59N 44°19' E 008°30'0 0.0
2017-Sep-12 10:29N 44°19' E 008°30'0 0.0
2017-Sep-12 09:59N 44°19' E 008°30'0 0.0
2017-Sep-12 09:29N 44°19' E 008°30'0 0.4
2017-Sep-12 09:00N 44°19' E 008°30'2 3.7
2017-Sep-12 08:30N 44°18' E 008°32'5 9.1
2017-Sep-12 08:00N 44°13' E 008°34'510.4
2017-Sep-12 07:30N 44°08' E 008°34'611.9
2017-Sep-12 07:00N 44°02' E 008°34'510.7
2017-Sep-12 06:30N 43°57' E 008°30'611.6
2017-Sep-12 06:00N 43°54' E 008°24'711.4
2017-Sep-12 05:26N 43°49' E 008°18'3711.5
2017-Sep-12 02:12N 43°23' E 007°41'211.1
2017-Sep-12 01:59N 43°22' E 007°38'511.1
2017-Sep-12 01:30N 43°18' E 007°33'611.0
2017-Sep-12 00:58N 43°14' E 007°27'510.6
2017-Sep-12 00:30N 43°11' E 007°22'510.2
2017-Sep-11 23:58N 43°07' E 007°17'510.0
2017-Sep-11 23:30N 43°04' E 007°12'510.0
2017-Sep-11 23:00N 42°60' E 007°08'  

Dump ship's entire track history